createdAt,value
2018-06-24T00:00:20.561Z,3.98
2018-06-24T00:02:50.593Z,3.80
2018-06-24T00:05:21.721Z,3.55
2018-06-24T00:07:51.054Z,3.83
2018-06-24T00:10:20.765Z,4.80
2018-06-24T00:12:50.608Z,4.28
2018-06-24T00:15:20.111Z,4.35
2018-06-24T00:17:50.484Z,4.40
2018-06-24T00:20:20.507Z,4.10
2018-06-24T00:22:51.291Z,4.35
2018-06-24T00:25:22.790Z,4.20
2018-06-24T00:27:52.422Z,4.28
2018-06-24T00:30:21.962Z,4.55
2018-06-24T00:32:51.027Z,4.00
2018-06-24T00:35:20.844Z,4.33
2018-06-24T00:37:50.856Z,3.90
2018-06-24T00:40:20.351Z,3.98
2018-06-24T00:42:49.952Z,4.28
2018-06-24T00:45:19.366Z,4.25
2018-06-24T00:47:49.918Z,4.35
2018-06-24T00:50:19.575Z,4.40
2018-06-24T00:52:50.356Z,4.33
2018-06-24T00:55:20.391Z,3.47
2018-06-24T00:57:49.751Z,3.80
2018-06-24T01:00:19.911Z,4.03
2018-06-24T01:02:50.473Z,4.20
2018-06-24T01:05:19.514Z,4.10
2018-06-24T01:07:50.893Z,3.77
2018-06-24T01:10:20.635Z,4.33
2018-06-24T01:12:50.371Z,3.98
2018-06-24T01:15:20.676Z,3.77
2018-06-24T01:17:50.259Z,4.08
2018-06-24T01:20:19.904Z,4.50
2018-06-24T01:22:50.490Z,3.92
2018-06-24T01:25:19.983Z,4.58
2018-06-24T01:27:49.166Z,4.08
2018-06-24T01:30:18.604Z,4.40
2018-06-24T01:32:48.021Z,4.30
2018-06-24T01:35:16.918Z,4.80
2018-06-24T01:37:47.191Z,4.40
2018-06-24T01:40:16.822Z,5.08
2018-06-24T01:42:46.307Z,4.83
2018-06-24T01:45:15.940Z,5.30
2018-06-24T01:47:46.310Z,5.10
2018-06-24T01:50:16.682Z,5.20
2018-06-24T01:52:46.811Z,4.85
2018-06-24T01:55:17.763Z,5.28
2018-06-24T01:57:47.923Z,5.22
2018-06-24T02:00:17.063Z,6.50
2018-06-24T02:02:46.910Z,6.10
2018-06-24T02:05:17.191Z,6.17
2018-06-24T02:07:46.460Z,7.08
2018-06-24T02:10:15.433Z,7.90
2018-06-24T02:12:45.046Z,7.50
2018-06-24T02:15:13.995Z,7.55
2018-06-24T02:17:43.084Z,7.80
2018-06-24T02:20:13.253Z,7.33
2018-06-24T02:22:43.882Z,7.45
2018-06-24T02:25:13.123Z,7.78
2018-06-24T02:27:42.043Z,7.00
2018-06-24T02:30:12.443Z,7.20
2018-06-24T02:32:42.270Z,6.97
2018-06-24T02:35:11.151Z,7.30
2018-06-24T02:37:42.541Z,7.33
2018-06-24T02:40:11.533Z,7.37
2018-06-24T02:42:41.167Z,6.75
2018-06-24T02:45:10.823Z,6.90
2018-06-24T02:47:41.447Z,6.75
2018-06-24T02:50:11.989Z,6.83
2018-06-24T02:52:41.063Z,7.00
2018-06-24T02:55:11.568Z,7.08
2018-06-24T02:57:40.544Z,6.80
2018-06-24T03:00:11.617Z,6.40
2018-06-24T03:02:41.321Z,6.40
2018-06-24T03:05:10.852Z,6.60
2018-06-24T03:07:41.560Z,6.33
2018-06-24T03:10:12.275Z,6.37
2018-06-24T03:12:41.593Z,5.90
2018-06-24T03:15:11.203Z,5.92
2018-06-24T03:17:41.696Z,6.08
2018-06-24T03:20:11.941Z,6.10
2018-06-24T03:22:41.362Z,5.72
2018-06-24T03:25:11.516Z,6.05
2018-06-24T03:27:42.593Z,5.50
2018-06-24T03:30:13.791Z,5.85
2018-06-24T03:32:43.252Z,6.25
2018-06-24T03:35:12.759Z,6.10
2018-06-24T03:37:41.832Z,6.50
2018-06-24T03:40:11.392Z,6.30
2018-06-24T03:42:41.752Z,6.40
2018-06-24T03:45:10.715Z,5.97
2018-06-24T03:47:42.182Z,5.22
2018-06-24T03:50:11.865Z,4.90
2018-06-24T03:52:41.956Z,5.20
2018-06-24T03:55:11.985Z,5.42
2018-06-24T03:57:41.887Z,4.35
2018-06-24T04:00:11.407Z,4.90
2018-06-24T04:02:42.684Z,4.80
2018-06-24T04:05:13.316Z,4.95
2018-06-24T04:07:44.036Z,4.35
2018-06-24T04:10:13.195Z,4.50
2018-06-24T04:12:43.632Z,4.45
2018-06-24T04:15:14.598Z,4.33
2018-06-24T04:17:45.311Z,4.53
2018-06-24T04:20:15.613Z,3.70
2018-06-24T04:22:45.952Z,4.15
2018-06-24T04:25:16.733Z,3.90
2018-06-24T04:27:46.998Z,4.15
2018-06-24T04:30:18.013Z,3.58
2018-06-24T04:32:48.167Z,3.10
2018-06-24T04:35:18.370Z,3.52
2018-06-24T04:37:47.747Z,3.55
2018-06-24T04:40:16.591Z,3.40
2018-06-24T04:42:46.898Z,3.70
2018-06-24T04:45:18.065Z,3.75
2018-06-24T04:47:47.312Z,3.80
2018-06-24T04:50:18.268Z,3.50
2018-06-24T04:52:48.126Z,2.95
2018-06-24T04:55:17.143Z,3.00
2018-06-24T04:57:47.406Z,3.50
2018-06-24T05:00:20.046Z,3.22
2018-06-24T05:02:49.000Z,3.72
2018-06-24T05:05:18.889Z,3.60
2018-06-24T05:07:49.199Z,3.30
2018-06-24T05:10:19.945Z,3.37
2018-06-24T05:12:49.568Z,3.22
2018-06-24T05:15:20.745Z,3.20
2018-06-24T05:17:50.173Z,2.95
2018-06-24T05:20:19.206Z,2.95
2018-06-24T05:22:48.807Z,2.62
2018-06-24T05:25:19.507Z,3.00
2018-06-24T05:27:48.448Z,2.90
2018-06-24T05:30:17.709Z,2.90
2018-06-24T05:32:48.351Z,2.85
2018-06-24T05:35:18.570Z,2.65
2018-06-24T05:37:49.133Z,2.30
2018-06-24T05:40:19.612Z,2.33
2018-06-24T05:42:49.079Z,2.47
2018-06-24T05:45:20.168Z,2.50
2018-06-24T05:47:49.707Z,2.80
2018-06-24T05:50:20.273Z,2.55
2018-06-24T05:52:49.402Z,2.05
2018-06-24T05:55:20.856Z,2.52
2018-06-24T05:57:50.643Z,2.40
2018-06-24T06:00:20.242Z,2.47
2018-06-24T06:02:49.332Z,2.50
2018-06-24T06:05:19.823Z,2.00
2018-06-24T06:07:49.508Z,2.00
2018-06-24T06:10:20.983Z,1.77
2018-06-24T06:12:51.563Z,1.98
2018-06-24T06:15:22.571Z,1.55
2018-06-24T06:17:52.843Z,1.80
2018-06-24T06:20:23.716Z,1.70
2018-06-24T06:22:53.276Z,1.52
2018-06-24T06:25:23.692Z,1.70
2018-06-24T06:27:52.564Z,1.50
2018-06-24T06:30:22.753Z,1.70
2018-06-24T06:32:52.874Z,1.82
2018-06-24T06:35:22.586Z,1.52
2018-06-24T06:37:53.620Z,1.70
2018-06-24T06:40:23.563Z,1.40
2018-06-24T06:42:54.317Z,1.30
2018-06-24T06:45:25.010Z,1.30
2018-06-24T06:47:54.405Z,1.40
2018-06-24T06:50:24.729Z,1.50
2018-06-24T06:52:54.293Z,1.40
2018-06-24T06:55:23.215Z,1.40
2018-06-24T06:57:54.699Z,1.32
2018-06-24T07:00:23.665Z,1.80
2018-06-24T07:02:54.492Z,1.80
2018-06-24T07:05:23.530Z,1.62
2018-06-24T07:07:53.072Z,2.10
2018-06-24T07:10:24.523Z,2.15
2018-06-24T07:12:54.105Z,1.87
2018-06-24T07:15:24.290Z,1.70
2018-06-24T07:17:54.089Z,1.92
2018-06-24T07:20:24.122Z,1.82
2018-06-24T07:22:53.161Z,1.70
2018-06-24T07:25:22.909Z,2.10
2018-06-24T07:27:53.402Z,2.12
2018-06-24T07:30:23.833Z,1.60
2018-06-24T07:32:52.906Z,1.90
2018-06-24T07:35:23.558Z,2.22
2018-06-24T07:37:54.080Z,2.22
2018-06-24T07:40:22.983Z,1.90
2018-06-24T07:42:53.789Z,1.77
2018-06-24T07:45:22.932Z,1.90
2018-06-24T07:47:53.129Z,1.80
2018-06-24T07:50:23.727Z,1.80
2018-06-24T07:52:56.780Z,1.90
2018-06-24T07:55:27.786Z,1.98
2018-06-24T07:57:57.528Z,1.62
2018-06-24T08:00:26.696Z,1.80
2018-06-24T08:02:58.608Z,1.87
2018-06-24T08:05:30.416Z,1.80
2018-06-24T08:07:59.382Z,1.70
2018-06-24T08:10:29.575Z,1.75
2018-06-24T08:13:01.480Z,1.90
2018-06-24T08:15:31.454Z,1.90
2018-06-24T08:18:02.054Z,1.77
2018-06-24T08:20:31.419Z,1.80
2018-06-24T08:23:01.619Z,2.10
2018-06-24T08:25:30.632Z,2.15
2018-06-24T08:28:01.136Z,2.10
2018-06-24T08:30:30.506Z,1.60
2018-06-24T08:33:00.882Z,1.67
2018-06-24T08:35:31.751Z,1.75
2018-06-24T08:38:02.657Z,1.98
2018-06-24T08:40:33.106Z,1.70
2018-06-24T08:43:02.023Z,1.90
2018-06-24T08:45:31.842Z,1.80
2018-06-24T08:48:01.595Z,1.92
2018-06-24T08:50:31.909Z,1.70
2018-06-24T08:53:02.032Z,1.87
2018-06-24T08:55:32.301Z,1.75
2018-06-24T08:58:01.282Z,1.40
2018-06-24T09:00:31.111Z,1.40
2018-06-24T09:03:02.816Z,1.40
2018-06-24T09:05:33.594Z,1.30
2018-06-24T09:08:04.396Z,1.27
2018-06-24T09:10:33.872Z,1.30
2018-06-24T09:13:02.653Z,1.85
2018-06-24T09:15:31.564Z,1.42
2018-06-24T09:18:01.409Z,1.47
2018-06-24T09:20:32.098Z,1.10
2018-06-24T09:23:01.443Z,1.35
2018-06-24T09:25:32.971Z,1.02
2018-06-24T09:28:04.357Z,1.00
2018-06-24T09:30:33.345Z,1.10
2018-06-24T09:33:03.718Z,1.25
2018-06-24T09:35:33.562Z,1.12
2018-06-24T09:38:03.511Z,1.07
2018-06-24T09:40:33.055Z,1.30
2018-06-24T09:43:03.843Z,1.20
2018-06-24T09:45:33.244Z,1.20
2018-06-24T09:48:03.431Z,1.40
2018-06-24T09:50:33.701Z,1.30
2018-06-24T09:53:04.986Z,1.35
2018-06-24T09:55:35.820Z,1.47
2018-06-24T09:58:07.263Z,1.12
2018-06-24T10:00:37.554Z,1.40
2018-06-24T10:03:07.737Z,1.32
2018-06-24T10:05:38.333Z,1.27
2018-06-24T10:08:07.392Z,1.20
2018-06-24T10:10:37.559Z,1.10
2018-06-24T10:13:08.602Z,1.20
2018-06-24T10:15:39.650Z,1.35
2018-06-24T10:18:10.917Z,1.30
2018-06-24T10:20:40.279Z,1.30
2018-06-24T10:23:10.432Z,1.40
2018-06-24T10:25:40.107Z,1.42
2018-06-24T10:28:09.630Z,1.80
2018-06-24T10:30:41.172Z,1.35
2018-06-24T10:33:10.965Z,1.65
2018-06-24T10:35:40.516Z,1.50
2018-06-24T10:38:11.556Z,1.20
2018-06-24T10:40:43.367Z,1.50
2018-06-24T10:43:14.612Z,1.50
2018-06-24T10:45:45.617Z,1.90
2018-06-24T10:48:16.187Z,1.92
2018-06-24T10:50:47.707Z,1.40
2018-06-24T10:53:18.557Z,1.65
2018-06-24T10:55:47.586Z,2.83
2018-06-24T10:58:17.466Z,1.60
2018-06-24T11:00:47.135Z,1.82
2018-06-24T11:03:17.335Z,1.65
2018-06-24T11:05:47.641Z,1.50
2018-06-24T11:08:18.974Z,1.70
2018-06-24T11:10:48.148Z,1.50
2018-06-24T11:13:18.459Z,1.70
2018-06-24T11:15:48.238Z,1.55
2018-06-24T11:18:17.720Z,1.90
2018-06-24T11:20:48.711Z,1.47
2018-06-24T11:23:19.076Z,3.00
2018-06-24T11:25:49.916Z,1.60
2018-06-24T11:28:19.608Z,1.50
2018-06-24T11:30:48.599Z,1.67
2018-06-24T11:33:18.639Z,1.55
2018-06-24T11:35:48.303Z,1.60
2018-06-24T11:38:17.339Z,1.98
2018-06-24T11:40:48.053Z,1.80
2018-06-24T11:43:17.158Z,1.80
2018-06-24T11:45:47.919Z,1.50
2018-06-24T11:48:17.004Z,2.17
2018-06-24T11:50:48.040Z,1.98
2018-06-24T11:53:17.165Z,1.57
2018-06-24T11:55:47.667Z,1.55
2018-06-24T11:58:17.768Z,1.95
2018-06-24T12:00:47.767Z,1.80
2018-06-24T12:03:16.783Z,1.40
2018-06-24T12:05:47.233Z,1.40
2018-06-24T12:08:18.284Z,1.47
2018-06-24T12:10:47.499Z,1.45
2018-06-24T12:13:18.546Z,1.50
2018-06-24T12:15:49.516Z,1.50
2018-06-24T12:18:20.686Z,1.65
2018-06-24T12:20:50.177Z,1.47
2018-06-24T12:23:19.983Z,1.37
2018-06-24T12:25:50.383Z,1.47
2018-06-24T12:28:19.813Z,1.47
2018-06-24T12:30:50.019Z,1.50
2018-06-24T12:33:19.076Z,1.75
2018-06-24T12:35:50.118Z,1.70
2018-06-24T12:38:20.111Z,1.65
2018-06-24T12:40:49.123Z,1.85
2018-06-24T12:43:20.567Z,1.62
2018-06-24T12:45:51.142Z,1.57
2018-06-24T12:48:21.888Z,1.47
2018-06-24T12:50:51.476Z,1.75
2018-06-24T12:53:21.232Z,1.87
2018-06-24T12:55:52.678Z,1.70
2018-06-24T12:58:22.659Z,1.80
2018-06-24T13:00:52.273Z,1.50
2018-06-24T13:03:21.170Z,1.57
2018-06-24T13:05:51.479Z,1.87
2018-06-24T13:08:21.106Z,1.60
2018-06-24T13:10:52.160Z,1.80
2018-06-24T13:13:21.638Z,1.80
2018-06-24T13:15:53.145Z,1.57
2018-06-24T13:18:24.539Z,1.52
2018-06-24T13:20:54.568Z,1.40
2018-06-24T13:23:24.782Z,1.40
2018-06-24T13:25:55.025Z,1.70
2018-06-24T13:28:25.424Z,1.42
2018-06-24T13:30:56.908Z,1.90
2018-06-24T13:33:27.328Z,1.87
2018-06-24T13:35:57.815Z,1.90
2018-06-24T13:38:27.355Z,1.60
2018-06-24T13:40:58.130Z,1.70
2018-06-24T13:43:28.316Z,1.98
2018-06-24T13:45:57.910Z,2.12
2018-06-24T13:48:27.214Z,2.30
2018-06-24T13:50:58.462Z,2.37
2018-06-24T13:53:28.155Z,1.52
2018-06-24T13:55:57.776Z,1.80
2018-06-24T13:58:28.266Z,1.90
2018-06-24T14:00:57.221Z,1.87
2018-06-24T14:03:28.532Z,1.62
2018-06-24T14:05:58.397Z,2.25
2018-06-24T14:08:27.321Z,1.87
2018-06-24T14:10:57.819Z,2.20
2018-06-24T14:13:28.474Z,2.20
2018-06-24T14:15:58.087Z,2.20
2018-06-24T14:18:27.090Z,2.52
2018-06-24T14:20:57.754Z,1.85
2018-06-24T14:23:29.371Z,1.60
2018-06-24T14:26:00.580Z,1.80
2018-06-24T14:28:30.104Z,1.82
2018-06-24T14:31:00.033Z,1.45
2018-06-24T14:33:29.899Z,1.67
2018-06-24T14:35:59.356Z,1.70
2018-06-24T14:38:32.126Z,2.25
2018-06-24T14:41:01.747Z,1.90
2018-06-24T14:43:32.350Z,1.77
2018-06-24T14:46:02.110Z,1.80
2018-06-24T14:48:32.376Z,1.92
2018-06-24T14:51:01.465Z,1.90
2018-06-24T14:53:33.178Z,1.75
2018-06-24T14:56:04.188Z,2.40
2018-06-24T14:58:33.608Z,2.00
2018-06-24T15:01:03.796Z,1.80
2018-06-24T15:03:33.472Z,2.20
2018-06-24T15:06:03.134Z,1.80
2018-06-24T15:08:34.607Z,1.82
2018-06-24T15:11:04.255Z,1.90
2018-06-24T15:13:33.636Z,2.17
2018-06-24T15:16:05.472Z,2.00
2018-06-24T15:18:35.959Z,2.45
2018-06-24T15:21:04.989Z,2.00
2018-06-24T15:23:36.105Z,2.20
2018-06-24T15:26:06.141Z,2.20
2018-06-24T15:28:35.865Z,1.90
2018-06-24T15:31:05.957Z,2.05
2018-06-24T15:33:35.707Z,2.17
2018-06-24T15:36:05.952Z,2.47
2018-06-24T15:38:35.437Z,2.30
2018-06-24T15:41:06.637Z,2.60
2018-06-24T15:43:35.644Z,3.05
2018-06-24T15:46:05.882Z,2.30
2018-06-24T15:48:34.931Z,1.85
2018-06-24T15:51:06.700Z,2.40
2018-06-24T15:53:36.998Z,1.87
2018-06-24T15:56:06.849Z,1.80
2018-06-24T15:58:38.261Z,1.90
2018-06-24T16:01:07.188Z,2.10
2018-06-24T16:03:38.009Z,1.80
2018-06-24T16:06:07.650Z,1.98
2018-06-24T16:08:37.298Z,2.25
2018-06-24T16:11:07.658Z,2.20
2018-06-24T16:13:37.949Z,2.22
2018-06-24T16:16:06.978Z,2.22
2018-06-24T16:18:37.261Z,2.30
2018-06-24T16:21:06.414Z,1.80
2018-06-24T16:23:35.689Z,2.27
2018-06-24T16:26:06.682Z,1.92
2018-06-24T16:28:36.791Z,1.77
2018-06-24T16:31:06.329Z,1.67
2018-06-24T16:33:36.181Z,2.15
2018-06-24T16:36:07.105Z,2.25
2018-06-24T16:38:36.943Z,2.35
2018-06-24T16:41:06.669Z,2.47
2018-06-24T16:43:36.203Z,2.22
2018-06-24T16:46:05.899Z,2.40
2018-06-24T16:48:34.925Z,2.12
2018-06-24T16:51:05.068Z,2.33
2018-06-24T16:53:36.484Z,2.60
2018-06-24T16:56:05.710Z,2.60
2018-06-24T16:58:34.679Z,2.83
2018-06-24T17:01:03.716Z,2.77
2018-06-24T17:03:33.872Z,2.50
2018-06-24T17:06:03.143Z,2.70
2018-06-24T17:08:34.622Z,2.42
2018-06-24T17:11:04.062Z,2.22
2018-06-24T17:13:33.378Z,2.37
2018-06-24T17:16:03.711Z,2.33
2018-06-24T17:18:33.422Z,2.40
2018-06-24T17:21:03.854Z,2.10
2018-06-24T17:23:34.890Z,1.80
2018-06-24T17:26:05.822Z,1.95
2018-06-24T17:28:36.030Z,1.62
2018-06-24T17:31:08.012Z,1.55
2018-06-24T17:33:36.973Z,1.40
2018-06-24T17:36:07.602Z,1.20
2018-06-24T17:38:37.900Z,1.40
2018-06-24T17:41:06.924Z,1.65
2018-06-24T17:43:37.689Z,1.40
2018-06-24T17:46:08.078Z,1.30
2018-06-24T17:48:37.543Z,1.45
2018-06-24T17:51:06.637Z,1.25
2018-06-24T17:53:35.832Z,1.50
2018-06-24T17:56:06.107Z,1.50
2018-06-24T17:58:36.204Z,1.40
2018-06-24T18:01:06.497Z,1.50
2018-06-24T18:03:35.403Z,1.57
2018-06-24T18:06:05.813Z,1.80
2018-06-24T18:08:35.256Z,1.90
2018-06-24T18:11:05.543Z,1.67
2018-06-24T18:13:34.716Z,1.40
2018-06-24T18:16:05.055Z,1.77
2018-06-24T18:18:36.381Z,1.60
2018-06-24T18:21:06.616Z,1.75
2018-06-24T18:23:36.328Z,1.80
2018-06-24T18:26:06.117Z,1.72
2018-06-24T18:28:35.542Z,1.62
2018-06-24T18:31:06.828Z,1.85
2018-06-24T18:33:36.529Z,1.98
2018-06-24T18:36:06.029Z,1.90
2018-06-24T18:38:37.126Z,1.92
2018-06-24T18:41:08.230Z,1.98
2018-06-24T18:43:38.002Z,2.20
2018-06-24T18:46:06.997Z,2.37
2018-06-24T18:48:36.811Z,2.50
2018-06-24T18:51:06.638Z,2.20
2018-06-24T18:53:36.582Z,2.20
2018-06-24T18:56:08.267Z,2.35
2018-06-24T18:58:37.499Z,2.22
2018-06-24T19:01:08.705Z,2.40
2018-06-24T19:03:38.368Z,2.47
2018-06-24T19:06:08.019Z,2.37
2018-06-24T19:08:37.138Z,2.12
2018-06-24T19:11:08.509Z,2.60
2018-06-24T19:13:38.004Z,2.30
2018-06-24T19:16:08.246Z,2.52
2018-06-24T19:18:38.269Z,2.47
2018-06-24T19:21:09.431Z,2.67
2018-06-24T19:23:40.003Z,2.10
2018-06-24T19:26:10.102Z,2.98
2018-06-24T19:28:39.652Z,2.17
2018-06-24T19:31:10.251Z,1.70
2018-06-24T19:33:40.395Z,1.22
2018-06-24T19:36:10.683Z,1.30
2018-06-24T19:38:40.892Z,1.45
2018-06-24T19:41:12.346Z,1.60
2018-06-24T19:43:42.394Z,1.40
2018-06-24T19:46:12.019Z,1.07
2018-06-24T19:48:41.916Z,1.07
2018-06-24T19:51:10.830Z,1.27
2018-06-24T19:53:41.220Z,1.20
2018-06-24T19:56:12.102Z,1.30
2018-06-24T19:58:41.859Z,1.35
2018-06-24T20:01:13.323Z,1.70
2018-06-24T20:03:42.447Z,1.87
2018-06-24T20:06:11.628Z,1.98
2018-06-24T20:08:41.618Z,2.08
2018-06-24T20:11:13.634Z,1.90
2018-06-24T20:13:43.848Z,1.80
2018-06-24T20:16:15.527Z,1.70
2018-06-24T20:18:48.167Z,1.90
2018-06-24T20:21:18.667Z,1.80
2018-06-24T20:23:48.610Z,2.17
2018-06-24T20:26:18.663Z,2.90
2018-06-24T20:28:50.741Z,2.22
2018-06-24T20:31:22.024Z,2.15
2018-06-24T20:33:52.001Z,1.95
2018-06-24T20:36:21.302Z,2.17
2018-06-24T20:38:52.267Z,1.85
2018-06-24T20:41:22.691Z,1.90
2018-06-24T20:43:51.601Z,2.10
2018-06-24T20:46:21.981Z,2.62
2018-06-24T20:48:51.748Z,2.42
2018-06-24T20:51:23.238Z,3.10
2018-06-24T20:53:54.691Z,3.00
2018-06-24T20:56:25.427Z,3.83
2018-06-24T20:58:56.524Z,4.22
2018-06-24T21:01:26.991Z,4.80
2018-06-24T21:03:57.701Z,4.95
2018-06-24T21:06:27.989Z,5.65
2018-06-24T21:08:57.080Z,5.42
2018-06-24T21:11:28.391Z,5.10
2018-06-24T21:13:58.178Z,5.62
2018-06-24T21:16:27.556Z,6.30
2018-06-24T21:18:58.449Z,5.72
2018-06-24T21:21:27.387Z,5.85
2018-06-24T21:23:57.160Z,5.70
2018-06-24T21:26:28.183Z,5.25
2018-06-24T21:28:58.718Z,4.67
2018-06-24T21:31:28.667Z,5.25
2018-06-24T21:33:57.787Z,4.80
2018-06-24T21:36:28.054Z,5.10
2018-06-24T21:38:57.170Z,5.40
2018-06-24T21:41:26.698Z,5.20
2018-06-24T21:43:56.518Z,4.65
2018-06-24T21:46:26.071Z,4.95
2018-06-24T21:48:55.901Z,4.67
2018-06-24T21:51:24.796Z,4.67
2018-06-24T21:53:55.885Z,4.85
2018-06-24T21:56:26.723Z,3.45
2018-06-24T21:58:57.725Z,3.12
2018-06-24T22:01:28.612Z,2.95
2018-06-24T22:03:58.176Z,2.72
2018-06-24T22:06:27.258Z,2.30
2018-06-24T22:08:57.948Z,2.50
2018-06-24T22:11:28.469Z,2.77
2018-06-24T22:13:57.425Z,2.42
2018-06-24T22:16:27.211Z,2.10
2018-06-24T22:18:58.327Z,2.27
2018-06-24T22:21:27.463Z,2.65
2018-06-24T22:23:58.276Z,2.45
2018-06-24T22:26:27.288Z,2.40
2018-06-24T22:28:59.132Z,2.58
2018-06-24T22:31:28.965Z,2.62
2018-06-24T22:33:59.886Z,2.58
2018-06-24T22:36:29.727Z,2.37
2018-06-24T22:39:00.164Z,2.60
2018-06-24T22:41:29.579Z,2.25
2018-06-24T22:43:59.192Z,2.65
2018-06-24T22:46:28.560Z,2.33
2018-06-24T22:48:57.546Z,2.37
2018-06-24T22:51:27.151Z,1.95
2018-06-24T22:53:58.167Z,2.30
2018-06-24T22:56:28.144Z,2.52
2018-06-24T22:59:02.907Z,2.65
2018-06-24T23:01:33.387Z,2.02
2018-06-24T23:04:03.733Z,2.17
2018-06-24T23:06:34.704Z,2.42
2018-06-24T23:09:04.351Z,2.30
2018-06-24T23:11:33.831Z,2.00
2018-06-24T23:14:02.924Z,2.37
2018-06-24T23:16:32.680Z,2.37
2018-06-24T23:19:02.796Z,2.30
2018-06-24T23:21:33.221Z,2.08
2018-06-24T23:24:04.227Z,2.55
2018-06-24T23:26:33.252Z,2.12
2018-06-24T23:29:02.440Z,2.10
2018-06-24T23:31:31.521Z,1.90
2018-06-24T23:34:02.268Z,2.58
2018-06-24T23:36:31.813Z,2.00
2018-06-24T23:39:00.917Z,2.15
2018-06-24T23:41:30.602Z,2.15
2018-06-24T23:44:00.131Z,2.20
2018-06-24T23:46:29.231Z,2.30
2018-06-24T23:49:00.274Z,2.22
2018-06-24T23:51:29.597Z,2.33
2018-06-24T23:54:00.088Z,2.22
2018-06-24T23:56:30.123Z,2.20
2018-06-24T23:58:59.521Z,2.50
